createdAt,value
2023-05-23T00:00:15.670Z,12.90
2023-05-23T00:02:49.867Z,12.93
2023-05-23T00:05:22.146Z,12.77
2023-05-23T00:07:54.290Z,13.48
2023-05-23T00:10:26.878Z,12.55
2023-05-23T00:12:59.095Z,14.33
2023-05-23T00:15:31.270Z,13.27
2023-05-23T00:18:03.816Z,13.32
2023-05-23T00:20:37.611Z,15.13
2023-05-23T00:23:11.027Z,14.77
2023-05-23T00:25:48.503Z,14.48
2023-05-23T00:28:21.071Z,13.05
2023-05-23T00:30:53.290Z,13.45
2023-05-23T00:33:25.498Z,13.45
2023-05-23T00:35:57.668Z,14.60
2023-05-23T00:38:30.329Z,14.02
2023-05-23T00:41:02.706Z,14.10
2023-05-23T00:43:34.810Z,14.23
2023-05-23T00:46:07.656Z,14.20
2023-05-23T00:48:40.319Z,13.98
2023-05-23T00:51:12.542Z,14.32
2023-05-23T00:53:45.174Z,13.38
2023-05-23T00:56:17.388Z,14.25
2023-05-23T00:58:50.787Z,13.73
2023-05-23T01:01:23.153Z,13.55
2023-05-23T01:03:56.948Z,13.43
2023-05-23T01:06:30.815Z,13.55
2023-05-23T01:09:03.859Z,13.68
2023-05-23T01:12:08.928Z,13.38
2023-05-23T01:14:49.290Z,13.57
2023-05-23T01:17:33.593Z,12.82
2023-05-23T01:23:07.087Z,13.95
2023-05-23T01:26:12.868Z,12.88
2023-05-23T01:28:48.429Z,13.52
2023-05-23T01:31:22.499Z,14.15
2023-05-23T01:33:56.151Z,12.80
2023-05-23T01:36:28.339Z,13.15
2023-05-23T01:39:01.357Z,13.33
2023-05-23T01:41:33.691Z,12.82
2023-05-23T01:44:06.579Z,12.88
2023-05-23T01:46:39.832Z,14.00
2023-05-23T01:49:13.798Z,13.60
2023-05-23T01:51:46.761Z,13.25
2023-05-23T01:54:20.056Z,13.82
2023-05-23T01:56:52.463Z,13.75
2023-05-23T01:59:25.291Z,13.43
2023-05-23T02:01:57.611Z,13.15
2023-05-23T02:04:31.232Z,13.95
2023-05-23T02:09:36.767Z,13.32
2023-05-23T02:12:10.241Z,13.82
2023-05-23T02:14:42.436Z,13.65
2023-05-23T02:17:17.168Z,14.25
2023-05-23T02:19:50.141Z,14.43
2023-05-23T02:22:26.014Z,14.75
2023-05-23T02:24:58.154Z,13.63
2023-05-23T02:27:30.345Z,14.13
2023-05-23T02:30:02.741Z,14.80
2023-05-23T02:32:37.970Z,13.95
2023-05-23T02:35:11.135Z,14.27
2023-05-23T02:37:43.352Z,15.37
2023-05-23T02:40:16.201Z,15.23
2023-05-23T02:42:48.372Z,14.80
2023-05-23T02:45:20.906Z,15.40
2023-05-23T02:47:53.228Z,14.85
2023-05-23T02:50:25.391Z,13.77
2023-05-23T02:52:57.516Z,15.15
2023-05-23T02:55:32.090Z,16.13
2023-05-23T02:58:06.122Z,15.95
2023-05-23T03:00:38.749Z,14.73
2023-05-23T03:03:12.293Z,15.77
2023-05-23T03:05:44.617Z,16.33
2023-05-23T03:08:16.976Z,17.60
2023-05-23T03:10:49.227Z,15.57
2023-05-23T03:13:21.519Z,15.55
2023-05-23T03:15:54.144Z,15.73
2023-05-23T03:18:26.522Z,15.30
2023-05-23T03:20:58.821Z,16.27
2023-05-23T03:23:31.483Z,15.77
2023-05-23T03:26:04.352Z,15.37
2023-05-23T03:28:37.180Z,16.98
2023-05-23T03:31:09.418Z,17.27
2023-05-23T03:33:41.746Z,16.02
2023-05-23T03:36:14.734Z,17.83
2023-05-23T03:38:46.950Z,17.13
2023-05-23T03:41:20.276Z,15.65
2023-05-23T03:43:52.762Z,16.92
2023-05-23T03:46:25.124Z,17.15
2023-05-23T03:48:58.477Z,16.67
2023-05-23T03:51:32.212Z,15.40
2023-05-23T03:54:04.832Z,17.00
2023-05-23T03:56:37.206Z,17.35
2023-05-23T03:59:10.201Z,18.35
2023-05-23T04:01:42.601Z,16.15
2023-05-23T04:04:17.671Z,16.90
2023-05-23T04:06:50.052Z,16.80
2023-05-23T04:09:22.686Z,17.02
2023-05-23T04:11:56.404Z,16.67
2023-05-23T04:14:29.746Z,18.40
2023-05-23T04:17:04.101Z,17.13
2023-05-23T04:19:36.959Z,17.50
2023-05-23T04:22:09.572Z,18.80
2023-05-23T04:24:41.958Z,17.08
2023-05-23T04:29:48.232Z,18.10
2023-05-23T04:32:23.297Z,17.95
2023-05-23T04:34:57.198Z,17.90
2023-05-23T04:37:33.199Z,17.27
2023-05-23T04:40:07.829Z,18.83
2023-05-23T04:42:52.166Z,17.35
2023-05-23T04:45:37.617Z,17.90
2023-05-23T04:48:29.563Z,16.85
2023-05-23T04:51:06.813Z,18.73
2023-05-23T04:53:41.665Z,19.23
2023-05-23T04:56:19.876Z,17.88
2023-05-23T04:58:54.029Z,18.60
2023-05-23T05:01:26.717Z,18.25
2023-05-23T05:03:59.421Z,16.27
2023-05-23T05:06:31.869Z,19.20
2023-05-23T05:09:05.140Z,19.02
2023-05-23T05:11:37.496Z,17.58
2023-05-23T05:14:09.808Z,19.92
2023-05-23T05:16:43.076Z,19.73
2023-05-23T05:19:16.024Z,20.05
2023-05-23T05:21:49.066Z,19.27
2023-05-23T05:24:22.950Z,19.13
2023-05-23T05:26:55.947Z,19.63
2023-05-23T05:29:29.022Z,19.85
2023-05-23T05:32:01.588Z,19.27
2023-05-23T05:34:35.364Z,20.67
2023-05-23T05:37:07.586Z,19.92
2023-05-23T05:39:39.944Z,21.10
2023-05-23T05:42:13.104Z,21.13
2023-05-23T05:44:45.342Z,19.60
2023-05-23T05:47:18.496Z,20.73
2023-05-23T05:49:50.800Z,19.50
2023-05-23T05:52:23.524Z,20.77
2023-05-23T05:54:57.888Z,23.30
2023-05-23T05:57:30.268Z,20.58
2023-05-23T06:00:02.540Z,22.08
2023-05-23T06:02:36.879Z,20.88
2023-05-23T06:05:12.703Z,19.95
2023-05-23T06:07:45.027Z,20.15
2023-05-23T06:10:17.644Z,20.80
2023-05-23T06:12:50.605Z,19.63
2023-05-23T06:15:23.225Z,19.08
2023-05-23T06:17:56.009Z,18.70
2023-05-23T06:20:29.819Z,19.02
2023-05-23T06:23:05.808Z,18.23
2023-05-23T06:28:11.650Z,19.27
2023-05-23T06:30:44.133Z,20.02
2023-05-23T06:33:17.300Z,19.17
2023-05-23T06:35:49.520Z,19.92
2023-05-23T06:38:21.890Z,18.95
2023-05-23T06:40:54.170Z,19.42
2023-05-23T06:43:26.622Z,18.92
2023-05-23T06:46:07.367Z,19.10
2023-05-23T06:48:39.680Z,18.23
2023-05-23T06:51:12.222Z,20.25
2023-05-23T06:53:44.490Z,19.98
2023-05-23T06:56:17.146Z,18.42
2023-05-23T06:58:59.690Z,19.15
2023-05-23T07:01:32.828Z,18.73
2023-05-23T07:04:05.851Z,19.23
2023-05-23T07:06:40.080Z,18.65
2023-05-23T07:09:13.881Z,19.02
2023-05-23T07:11:46.636Z,18.83
2023-05-23T07:14:20.999Z,20.52
2023-05-23T07:16:53.775Z,20.20
2023-05-23T07:19:26.166Z,20.83
2023-05-23T07:21:58.728Z,21.65
2023-05-23T07:24:32.443Z,19.85
2023-05-23T07:27:07.082Z,21.83
2023-05-23T07:29:41.417Z,20.27
2023-05-23T07:32:15.380Z,20.48
2023-05-23T07:34:49.065Z,21.15
2023-05-23T07:37:21.373Z,20.73
2023-05-23T07:39:54.340Z,21.02
2023-05-23T07:42:26.564Z,21.83
2023-05-23T07:44:58.885Z,22.30
2023-05-23T07:47:31.437Z,22.20
2023-05-23T07:50:04.096Z,24.08
2023-05-23T07:52:36.660Z,22.67
2023-05-23T07:55:11.008Z,21.27
2023-05-23T07:57:43.431Z,22.55
2023-05-23T08:00:16.539Z,21.75
2023-05-23T08:02:48.752Z,22.58
2023-05-23T08:05:27.814Z,23.90
2023-05-23T08:08:02.135Z,21.05
2023-05-23T08:10:34.352Z,21.77
2023-05-23T08:13:13.389Z,21.95
2023-05-23T08:15:58.980Z,23.70
2023-05-23T08:18:34.544Z,23.50
2023-05-23T08:21:07.196Z,22.23
2023-05-23T08:23:40.195Z,24.48
2023-05-23T08:26:12.545Z,22.90
2023-05-23T08:28:46.611Z,24.77
2023-05-23T08:31:18.908Z,22.20
2023-05-23T08:33:51.500Z,23.33
2023-05-23T08:36:23.968Z,23.27
2023-05-23T08:38:56.696Z,22.15
2023-05-23T08:41:38.176Z,23.88
2023-05-23T08:44:15.029Z,23.92
2023-05-23T08:46:53.993Z,22.23
2023-05-23T08:49:50.796Z,22.85
2023-05-23T08:55:01.801Z,26.77
2023-05-23T08:57:37.186Z,25.73
2023-05-23T09:00:26.337Z,27.10
2023-05-23T09:02:58.745Z,26.02
2023-05-23T09:05:47.704Z,27.48
2023-05-23T09:08:21.279Z,23.77
2023-05-23T09:10:56.682Z,24.63
2023-05-23T09:16:11.382Z,24.05
2023-05-23T09:18:51.223Z,24.50
2023-05-23T09:21:26.514Z,22.75
2023-05-23T09:24:14.380Z,23.05
2023-05-23T09:26:48.616Z,23.87
2023-05-23T09:29:22.170Z,25.45
2023-05-23T09:32:10.419Z,25.73
2023-05-23T09:34:58.381Z,26.58
2023-05-23T09:37:38.007Z,23.60
2023-05-23T09:40:13.475Z,25.23
2023-05-23T09:42:51.578Z,24.98
2023-05-23T09:45:31.417Z,23.73
2023-05-23T09:48:13.335Z,24.83
2023-05-23T09:50:47.240Z,23.10
2023-05-23T09:55:56.400Z,26.00
2023-05-23T09:58:30.489Z,24.73
2023-05-23T10:01:04.028Z,25.45
2023-05-23T10:03:49.777Z,25.15
2023-05-23T10:06:27.135Z,24.85
2023-05-23T10:09:04.073Z,26.17
2023-05-23T10:11:37.145Z,27.52
2023-05-23T10:14:11.028Z,28.07
2023-05-23T10:17:18.962Z,24.42
2023-05-23T10:20:00.363Z,25.80
2023-05-23T10:22:33.935Z,25.58
2023-05-23T10:25:08.582Z,26.52
2023-05-23T10:27:41.708Z,29.17
2023-05-23T10:30:14.415Z,26.63
2023-05-23T10:32:47.136Z,24.93
2023-05-23T10:35:56.771Z,26.60
2023-05-23T10:38:59.728Z,29.25
2023-05-23T10:41:41.758Z,29.42
2023-05-23T10:44:32.560Z,28.05
2023-05-23T10:47:05.328Z,28.55
2023-05-23T10:49:45.597Z,27.83
2023-05-23T10:52:18.494Z,26.55
2023-05-23T10:54:53.084Z,27.65
2023-05-23T10:57:28.479Z,27.20
2023-05-23T11:00:02.364Z,26.63
2023-05-23T11:02:35.421Z,26.30
2023-05-23T11:05:22.722Z,29.02
2023-05-23T11:08:17.998Z,29.10
2023-05-23T11:10:54.009Z,27.70
2023-05-23T11:13:26.454Z,26.08
2023-05-23T11:15:58.695Z,24.63
2023-05-23T11:18:35.559Z,24.67
2023-05-23T11:21:07.825Z,25.13
2023-05-23T11:23:42.341Z,24.77
2023-05-23T11:26:31.599Z,23.10
2023-05-23T11:29:09.589Z,22.35
2023-05-23T11:31:41.758Z,23.40
2023-05-23T11:34:14.207Z,25.33
2023-05-23T11:36:47.103Z,22.10
2023-05-23T11:39:20.990Z,20.73
2023-05-23T11:42:00.605Z,19.50
2023-05-23T11:44:32.805Z,20.70
2023-05-23T11:47:06.999Z,20.98
2023-05-23T11:49:44.391Z,20.20
2023-05-23T11:52:16.563Z,17.20
2023-05-23T11:54:49.822Z,20.35
2023-05-23T11:59:54.753Z,17.38
2023-05-23T12:02:28.930Z,18.45
2023-05-23T12:05:08.721Z,17.85
2023-05-23T12:07:42.890Z,18.08
2023-05-23T12:10:22.861Z,15.55
2023-05-23T12:12:56.224Z,17.50
2023-05-23T12:15:31.133Z,15.10
2023-05-23T12:18:03.558Z,18.48
2023-05-23T12:20:36.472Z,17.23
2023-05-23T12:23:08.660Z,16.33
2023-05-23T12:25:44.063Z,18.08
2023-05-23T12:28:16.482Z,16.05
2023-05-23T12:30:49.746Z,16.17
2023-05-23T12:35:54.295Z,17.20
2023-05-23T12:38:29.985Z,17.48
2023-05-23T12:41:13.459Z,17.10
2023-05-23T12:46:26.761Z,16.90
2023-05-23T12:48:59.712Z,18.23
2023-05-23T12:51:32.710Z,16.17
2023-05-23T12:54:04.986Z,16.80
2023-05-23T12:56:37.358Z,16.15
2023-05-23T12:59:09.692Z,15.67
2023-05-23T13:01:42.485Z,16.13
2023-05-23T13:04:15.182Z,15.85
2023-05-23T13:06:47.337Z,15.70
2023-05-23T13:09:19.531Z,16.50
2023-05-23T13:11:51.773Z,15.73
2023-05-23T13:14:24.099Z,16.80
2023-05-23T13:16:57.633Z,16.45
2023-05-23T13:22:04.640Z,15.13
2023-05-23T13:24:38.719Z,15.60
2023-05-23T13:27:11.019Z,16.67
2023-05-23T13:29:43.380Z,16.35
2023-05-23T13:32:15.774Z,18.48
2023-05-23T13:34:48.513Z,18.27
2023-05-23T13:37:20.677Z,16.17
2023-05-23T13:39:52.892Z,15.25
2023-05-23T13:42:25.489Z,14.38
2023-05-23T13:44:57.844Z,14.20
2023-05-23T13:47:31.748Z,15.10
2023-05-23T13:50:05.397Z,15.68
2023-05-23T13:52:38.068Z,14.27
2023-05-23T13:55:11.296Z,11.95
2023-05-23T13:57:43.481Z,12.27
2023-05-23T14:00:16.565Z,12.80
2023-05-23T14:02:48.791Z,13.23
2023-05-23T14:05:22.397Z,11.90
2023-05-23T14:07:54.620Z,12.63
2023-05-23T14:10:26.792Z,12.25
2023-05-23T14:12:59.610Z,13.38
2023-05-23T14:15:34.359Z,13.65
2023-05-23T14:18:06.865Z,12.35
2023-05-23T14:20:39.117Z,12.95
2023-05-23T14:23:11.394Z,12.05
2023-05-23T14:25:44.222Z,12.60
2023-05-23T14:28:16.781Z,11.27
2023-05-23T14:30:49.470Z,11.23
2023-05-23T14:33:22.291Z,11.70
2023-05-23T14:35:54.866Z,11.63
2023-05-23T14:38:27.787Z,11.07
2023-05-23T14:41:00.242Z,10.65
2023-05-23T14:43:33.618Z,10.65
2023-05-23T14:46:06.638Z,9.57
2023-05-23T14:48:39.442Z,9.15
2023-05-23T14:51:16.452Z,9.70
2023-05-23T14:53:57.333Z,8.52
2023-05-23T14:59:02.810Z,8.98
2023-05-23T15:01:36.620Z,10.07
2023-05-23T15:04:14.818Z,10.57
2023-05-23T15:06:51.355Z,9.57
2023-05-23T15:09:23.839Z,9.52
2023-05-23T15:11:56.476Z,11.02
2023-05-23T15:14:32.272Z,10.47
2023-05-23T15:17:08.209Z,10.80
2023-05-23T15:19:43.287Z,10.45
2023-05-23T15:22:33.544Z,11.13
2023-05-23T15:25:09.052Z,10.90
2023-05-23T15:27:41.309Z,11.50
2023-05-23T15:30:14.061Z,11.77
2023-05-23T15:32:46.632Z,12.97
2023-05-23T15:35:19.892Z,13.57
2023-05-23T15:37:52.319Z,15.18
2023-05-23T15:40:24.538Z,13.45
2023-05-23T15:42:57.150Z,15.35
2023-05-23T15:45:29.274Z,14.90
2023-05-23T15:48:01.755Z,14.98
2023-05-23T15:50:34.370Z,16.60
2023-05-23T15:53:06.581Z,15.73
2023-05-23T15:55:41.930Z,16.55
2023-05-23T15:58:15.405Z,16.40
2023-05-23T16:00:47.599Z,17.90
2023-05-23T16:03:20.045Z,15.80
2023-05-23T16:05:52.565Z,15.65
2023-05-23T16:08:24.939Z,15.87
2023-05-23T16:10:57.953Z,16.20
2023-05-23T16:13:30.804Z,15.55
2023-05-23T16:16:04.687Z,15.50
2023-05-23T16:21:09.173Z,14.40
2023-05-23T16:23:41.386Z,15.18
2023-05-23T16:26:14.067Z,14.98
2023-05-23T16:28:46.552Z,13.97
2023-05-23T16:31:26.541Z,13.60
2023-05-23T16:33:59.508Z,13.93
2023-05-23T16:36:33.227Z,13.88
2023-05-23T16:39:05.372Z,13.90
2023-05-23T16:41:39.431Z,14.13
2023-05-23T16:44:12.142Z,14.30
2023-05-23T16:46:44.590Z,13.48
2023-05-23T16:49:17.048Z,13.05
2023-05-23T16:51:49.232Z,20.45
2023-05-23T16:54:21.567Z,19.67
2023-05-23T16:56:53.943Z,19.27
2023-05-23T16:59:26.348Z,14.87
2023-05-23T17:01:58.697Z,10.77
2023-05-23T17:04:30.961Z,9.27
2023-05-23T17:07:03.353Z,9.95
2023-05-23T17:09:39.385Z,8.75
2023-05-23T17:12:13.572Z,8.60
2023-05-23T17:14:46.631Z,8.40
2023-05-23T17:17:18.848Z,8.07
2023-05-23T17:19:51.633Z,7.50
2023-05-23T17:22:24.050Z,7.47
2023-05-23T17:24:56.359Z,6.97
2023-05-23T17:27:28.698Z,6.97
2023-05-23T17:30:05.388Z,5.90
2023-05-23T17:32:39.438Z,6.13
2023-05-23T17:35:12.291Z,6.30
2023-05-23T17:37:45.301Z,5.63
2023-05-23T17:40:17.798Z,5.40
2023-05-23T17:42:50.076Z,5.85
2023-05-23T17:45:22.398Z,5.78
2023-05-23T17:47:55.549Z,5.95
2023-05-23T17:50:28.607Z,5.65
2023-05-23T17:53:03.448Z,5.50
2023-05-23T17:55:36.556Z,5.32
2023-05-23T17:58:09.690Z,5.38
2023-05-23T18:00:42.559Z,5.50
2023-05-23T18:03:16.023Z,4.65
2023-05-23T18:05:48.340Z,4.75
2023-05-23T18:08:20.798Z,4.82
2023-05-23T18:10:53.468Z,4.90
2023-05-23T18:13:25.732Z,5.07
2023-05-23T18:15:58.119Z,4.80
2023-05-23T18:18:30.398Z,4.35
2023-05-23T18:21:03.017Z,5.03
2023-05-23T18:23:35.798Z,4.68
2023-05-23T18:26:08.142Z,5.23
2023-05-23T18:28:40.317Z,3.90
2023-05-23T18:31:12.788Z,4.60
2023-05-23T18:33:45.387Z,4.25
2023-05-23T18:36:17.984Z,4.40
2023-05-23T18:38:50.770Z,4.10
2023-05-23T18:41:24.413Z,3.83
2023-05-23T18:46:30.969Z,4.13
2023-05-23T18:49:03.608Z,4.40
2023-05-23T18:51:35.790Z,4.45
2023-05-23T18:54:07.954Z,4.05
2023-05-23T18:56:40.805Z,4.88
2023-05-23T18:59:15.959Z,5.10
2023-05-23T19:01:48.506Z,4.00
2023-05-23T19:04:21.762Z,4.20
2023-05-23T19:06:54.137Z,4.38
2023-05-23T19:09:26.548Z,3.80
2023-05-23T19:11:59.303Z,3.90
2023-05-23T19:14:31.650Z,3.87
2023-05-23T19:17:06.062Z,3.67
2023-05-23T19:19:38.354Z,3.70
2023-05-23T19:22:11.423Z,3.58
2023-05-23T19:24:43.796Z,3.50
2023-05-23T19:27:16.864Z,3.42
2023-05-23T19:29:49.766Z,2.97
2023-05-23T19:32:22.142Z,3.90
2023-05-23T19:34:55.252Z,3.90
2023-05-23T19:37:27.798Z,3.85
2023-05-23T19:40:01.900Z,3.55
2023-05-23T19:42:34.067Z,3.75
2023-05-23T19:45:07.449Z,3.70
2023-05-23T19:47:40.524Z,4.10
2023-05-23T19:50:13.381Z,3.88
2023-05-23T19:52:45.605Z,3.80
2023-05-23T19:55:17.807Z,3.95
2023-05-23T19:57:50.296Z,3.70
2023-05-23T20:00:22.630Z,4.10
2023-05-23T20:02:56.811Z,4.10
2023-05-23T20:05:29.344Z,4.28
2023-05-23T20:08:01.762Z,4.38
2023-05-23T20:10:34.060Z,4.40
2023-05-23T20:13:07.029Z,4.50
2023-05-23T20:15:40.656Z,3.83
2023-05-23T20:18:13.141Z,4.15
2023-05-23T20:20:45.774Z,4.18
2023-05-23T20:23:18.702Z,4.30
2023-05-23T20:25:51.879Z,4.38
2023-05-23T20:28:24.113Z,4.63
2023-05-23T20:30:56.899Z,4.13
2023-05-23T20:33:29.073Z,4.38
2023-05-23T20:36:01.811Z,4.28
2023-05-23T20:38:34.469Z,4.43
2023-05-23T20:41:07.711Z,4.45
2023-05-23T20:43:40.732Z,4.13
2023-05-23T20:46:16.097Z,4.25
2023-05-23T20:48:48.389Z,4.28
2023-05-23T20:51:22.584Z,4.22
2023-05-23T20:53:54.798Z,4.40
2023-05-23T20:56:27.592Z,4.15
2023-05-23T20:59:03.643Z,4.15
2023-05-23T21:01:36.073Z,4.20
2023-05-23T21:04:08.399Z,4.43
2023-05-23T21:06:40.947Z,4.60
2023-05-23T21:09:13.916Z,4.57
2023-05-23T21:11:46.253Z,3.72
2023-05-23T21:14:18.579Z,4.50
2023-05-23T21:16:51.828Z,4.13
2023-05-23T21:19:24.108Z,4.50
2023-05-23T21:21:56.426Z,4.40
2023-05-23T21:24:29.634Z,4.53
2023-05-23T21:27:03.117Z,4.65
2023-05-23T21:29:35.485Z,4.43
2023-05-23T21:32:08.146Z,5.15
2023-05-23T21:34:40.813Z,4.30
2023-05-23T21:37:13.328Z,4.53
2023-05-23T21:39:52.091Z,4.35
2023-05-23T21:42:25.712Z,5.50
2023-05-23T21:44:58.364Z,4.60
2023-05-23T21:47:30.619Z,4.82
2023-05-23T21:50:04.417Z,5.20
2023-05-23T21:52:36.568Z,5.03
2023-05-23T21:55:08.727Z,4.75
2023-05-23T21:57:43.609Z,4.70
2023-05-23T22:00:18.954Z,5.03
2023-05-23T22:02:51.953Z,4.50
2023-05-23T22:05:24.167Z,5.20
2023-05-23T22:07:56.548Z,4.90
2023-05-23T22:10:29.100Z,4.95
2023-05-23T22:13:01.241Z,5.30
2023-05-23T22:15:35.577Z,4.72
2023-05-23T22:18:07.956Z,4.97
2023-05-23T22:20:40.808Z,5.28
2023-05-23T22:23:17.958Z,5.35
2023-05-23T22:25:50.385Z,4.97
2023-05-23T22:28:22.608Z,4.72
2023-05-23T22:30:54.736Z,4.70
2023-05-23T22:33:26.985Z,4.90
2023-05-23T22:35:59.142Z,5.03
2023-05-23T22:38:31.585Z,4.75
2023-05-23T22:41:04.439Z,4.93
2023-05-23T22:43:37.358Z,5.05
2023-05-23T22:46:09.968Z,4.82
2023-05-23T22:48:42.166Z,5.28
2023-05-23T22:51:14.812Z,5.10
2023-05-23T22:53:47.278Z,4.60
2023-05-23T22:56:19.579Z,4.45
2023-05-23T22:58:52.197Z,4.80
2023-05-23T23:01:24.667Z,5.22
2023-05-23T23:03:56.870Z,5.45
2023-05-23T23:06:29.484Z,4.82
2023-05-23T23:09:01.620Z,5.05
2023-05-23T23:11:33.778Z,6.35
2023-05-23T23:14:06.999Z,6.07
2023-05-23T23:16:39.640Z,6.40
2023-05-23T23:19:13.069Z,6.00
2023-05-23T23:21:45.351Z,5.72
2023-05-23T23:24:18.227Z,5.82
2023-05-23T23:26:50.341Z,6.30
2023-05-23T23:29:22.672Z,5.90
2023-05-23T23:31:57.646Z,5.88
2023-05-23T23:34:29.750Z,6.60
2023-05-23T23:37:01.969Z,5.90
2023-05-23T23:39:34.132Z,5.75
2023-05-23T23:42:06.889Z,5.93
2023-05-23T23:44:39.028Z,5.60
2023-05-23T23:47:11.483Z,6.95
2023-05-23T23:49:43.621Z,6.10
2023-05-23T23:52:16.445Z,6.75
2023-05-23T23:54:48.589Z,6.77
2023-05-23T23:57:20.864Z,6.80
2023-05-23T23:59:53.103Z,6.00
